createdAt,value
2022-12-23T18:25:42.042Z,78.83
2022-12-23T18:28:40.302Z,78.80
2022-12-23T18:31:38.428Z,78.87
2022-12-23T18:34:35.883Z,78.90
2022-12-23T18:37:33.311Z,78.93
2022-12-23T18:40:32.991Z,78.97
2022-12-23T18:43:30.878Z,79.09
2022-12-23T18:46:28.338Z,79.13
2022-12-23T18:49:25.876Z,79.18
2022-12-23T18:52:23.339Z,79.41
2022-12-23T18:55:20.902Z,79.52
2022-12-23T18:58:18.465Z,79.60
2022-12-23T19:01:15.958Z,79.75
2022-12-23T19:04:13.795Z,79.75
2022-12-23T19:07:11.359Z,79.82
2022-12-23T19:10:09.022Z,79.97
2022-12-23T19:13:06.686Z,80.01
2022-12-23T19:16:04.292Z,80.00
2022-12-23T19:19:01.950Z,80.09
2022-12-23T19:21:59.485Z,80.19
2022-12-23T19:25:05.317Z,80.21
2022-12-23T19:28:04.023Z,80.21
2022-12-23T19:31:01.505Z,80.24
2022-12-23T19:33:59.047Z,80.25
2022-12-23T19:36:56.606Z,80.28
2022-12-23T19:39:54.051Z,80.21
2022-12-23T19:42:51.857Z,80.22
2022-12-23T19:45:49.687Z,80.31
2022-12-23T19:48:47.163Z,80.36
2022-12-23T19:51:45.172Z,80.38
2022-12-23T19:54:43.393Z,80.38
2022-12-23T19:57:41.490Z,80.46
2022-12-23T20:00:39.671Z,80.49
2022-12-23T20:03:37.552Z,80.42
2022-12-23T20:06:34.988Z,80.40
2022-12-23T20:09:32.969Z,80.53
2022-12-23T20:12:31.044Z,80.49
2022-12-23T20:15:30.415Z,80.59
2022-12-23T20:18:30.225Z,80.63
2022-12-23T20:21:29.184Z,80.70
2022-12-23T20:24:27.598Z,80.71
2022-12-23T20:27:28.263Z,80.88
2022-12-23T20:30:28.624Z,80.93
2022-12-23T20:33:26.985Z,80.98
2022-12-23T20:36:24.583Z,81.00
2022-12-23T20:39:22.934Z,81.09
2022-12-23T20:42:20.694Z,81.17
2022-12-23T20:45:19.290Z,81.19
2022-12-23T20:48:18.194Z,81.26
2022-12-23T20:51:16.559Z,81.30
2022-12-23T20:54:14.119Z,81.43
2022-12-23T20:57:11.993Z,81.51
2022-12-23T21:00:09.549Z,81.57
2022-12-23T21:03:10.566Z,81.59
2022-12-23T21:06:08.467Z,81.63
2022-12-23T21:09:06.431Z,81.60
2022-12-23T21:12:03.973Z,81.58
2022-12-23T21:15:01.875Z,81.60
2022-12-23T21:17:59.752Z,81.56
2022-12-23T21:20:57.206Z,81.65
2022-12-23T21:23:54.764Z,81.53
2022-12-23T21:26:56.328Z,81.59
2022-12-23T21:29:54.513Z,81.74
2022-12-23T21:32:52.056Z,81.78
2022-12-23T21:35:49.931Z,81.82
2022-12-23T21:38:47.387Z,81.93
2022-12-23T21:41:46.394Z,82.07
2022-12-23T21:44:43.848Z,82.24
2022-12-23T21:47:41.839Z,82.28
2022-12-23T21:50:39.585Z,82.36
2022-12-23T21:53:37.459Z,82.40
2022-12-23T21:56:35.026Z,82.43
2022-12-23T21:59:35.120Z,82.45
2022-12-23T22:02:33.140Z,82.46
2022-12-23T22:05:31.182Z,82.50
2022-12-23T22:08:28.751Z,82.52
2022-12-23T22:11:27.214Z,82.59
2022-12-23T22:14:24.659Z,82.57
2022-12-23T22:17:22.560Z,82.51
2022-12-23T22:20:20.129Z,82.55
2022-12-23T22:23:18.107Z,82.45
2022-12-23T22:26:20.231Z,82.51
2022-12-23T22:29:21.907Z,82.47
2022-12-23T22:32:19.344Z,82.52
2022-12-23T22:35:17.359Z,82.57
2022-12-23T22:38:14.777Z,82.60
2022-12-23T22:41:12.660Z,82.60
2022-12-23T22:44:10.152Z,82.61
2022-12-23T22:47:08.100Z,82.51
2022-12-23T22:50:05.591Z,82.50
2022-12-23T22:53:03.548Z,82.44
2022-12-23T22:56:01.019Z,82.39
2022-12-23T22:58:58.863Z,82.35
2022-12-23T23:01:56.415Z,82.36
2022-12-23T23:04:54.297Z,82.33
2022-12-23T23:07:51.764Z,82.40
2022-12-23T23:10:49.639Z,82.40
2022-12-23T23:13:47.200Z,82.40
2022-12-23T23:16:45.250Z,82.38
2022-12-23T23:19:42.741Z,82.42
2022-12-23T23:22:40.620Z,82.51
2022-12-23T23:25:38.173Z,82.59
2022-12-23T23:28:36.144Z,82.67
2022-12-23T23:31:42.918Z,82.63
2022-12-23T23:34:42.740Z,82.81
2022-12-23T23:37:40.194Z,82.99
2022-12-23T23:40:38.166Z,83.10
2022-12-23T23:43:35.627Z,83.37
2022-12-23T23:46:33.543Z,83.82
2022-12-23T23:49:31.265Z,84.48
2022-12-23T23:52:29.347Z,84.77
2022-12-23T23:55:27.616Z,84.97
2022-12-23T23:58:25.076Z,85.22
